Time;durP1;ratioP1;P1;durP2;ratioP2;P2;SDS_P1;SDS_P2;PMS_P1;PMS_P2;Temp;Humidity;BMP_temperature;BMP_pressure;BME280_temperature;BME280_humidity;BME280_pressure;Samples;Min_cycle;Max_cycle;Signal;HPM_P1;HPM_P2
2022/12/14 00:00:47;;;;;;;;;;;;;;;-4.16;100.00;100743.84;5059200;28;19935;-80
2022/12/14 00:03:13;;;;;;;;;;;;;;;-4.17;100.00;100731.00;5060241;28;19924;-80
2022/12/14 00:05:38;;;;;;;;;;;;;;;-4.13;100.00;100735.16;5061083;28;19951;-80
2022/12/14 00:08:03;;;;;;;;;;;;;;;-4.21;100.00;100743.16;5043660;28;19916;-81
2022/12/14 00:10:30;;;;;;;;;;;;;;;-4.25;100.00;100744.16;5060047;28;19921;-81
2022/12/14 00:12:56;;;;;;;;;;;;;;;-4.20;100.00;100741.44;5058551;28;19920;-80
2022/12/14 00:15:21;;;;;;;;;;;;;;;-4.20;100.00;100731.13;5061118;28;20308;-81
2022/12/14 00:17:46;;;;;;;;;;;;;;;-4.19;100.00;100738.78;5067299;28;20050;-80
2022/12/14 00:20:11;;;;;;;;;;;;;;;-4.18;100.00;100729.31;5058814;28;19921;-80
2022/12/14 00:22:37;;;;;;;;;;;;;;;-4.19;100.00;100736.19;5060161;28;19924;-80
2022/12/14 00:25:02;;;;;;;;;;;;;;;-4.20;100.00;100726.81;5044412;28;19944;-80
2022/12/14 00:27:27;;;;;;;;;;;;;;;-4.20;100.00;100726.81;5041645;28;19920;-80
2022/12/14 00:29:53;;;;;;;;;;;;;;;-4.24;100.00;100725.25;5057857;28;20597;-81
2022/12/14 00:32:18;;;;;;;;;;;;;;;-4.31;100.00;100718.66;5056230;28;20012;-80
2022/12/14 00:34:43;;;;;;;;;;;;;;;-4.34;100.00;100711.84;5056774;28;19975;-81
2022/12/14 00:37:08;;;;;;;;;;;;;;;-4.32;100.00;100714.38;5044401;28;19920;-81
2022/12/14 00:39:34;;;;;;;;;;;;;;;-4.26;100.00;100718.47;5057270;28;19932;-81
2022/12/14 00:41:59;;;;;;;;;;;;;;;-4.26;100.00;100721.06;5058482;28;19960;-81
2022/12/14 00:44:24;;;;;;;;;;;;;;;-4.25;100.00;100723.53;5058657;28;20492;-81
2022/12/14 00:46:50;;;;;;;;;;;;;;;-4.23;100.00;100716.59;5058712;28;20292;-80
2022/12/14 00:49:15;;;;;;;;;;;;;;;-4.19;100.00;100710.44;5060065;28;19982;-80
2022/12/14 00:51:40;;;;;;;;;;;;;;;-4.19;100.00;100713.00;5058027;28;20566;-79
2022/12/14 00:54:05;;;;;;;;;;;;;;;-4.22;100.00;100708.00;5058243;28;20241;-81
2022/12/14 00:56:31;;;;;;;;;;;;;;;-4.21;100.00;100704.50;5058900;28;19943;-82
2022/12/14 00:58:56;;;;;;;;;;;;;;;-4.22;100.00;100692.53;5059016;28;19928;-81
2022/12/14 01:01:21;;;;;;;;;;;;;;;-4.22;100.00;100689.94;5059598;28;20497;-80
2022/12/14 01:03:47;;;;;;;;;;;;;;;-4.22;100.00;100692.53;5058568;28;19920;-81
2022/12/14 01:06:19;;;;;;;;;;;;;;;-4.20;100.00;100695.88;5059320;28;19913;-80
2022/12/14 01:08:45;;;;;;;;;;;;;;;-4.18;100.00;100688.06;5060036;28;20261;-80
2022/12/14 01:11:11;;;;;;;;;;;;;;;-4.24;100.00;100684.00;5058445;28;19965;-80
2022/12/14 01:13:37;;;;;;;;;;;;;;;-4.39;100.00;100677.72;5058847;28;19966;-80
2022/12/14 01:16:03;;;;;;;;;;;;;;;-4.44;100.00;100676.19;5057536;28;20018;-80
2022/12/14 01:18:31;;;;;;;;;;;;;;;-4.46;100.00;100670.28;5074630;28;20387;-81
2022/12/14 01:21:05;;;;;;;;;;;;;;;-4.45;100.00;100669.38;5057709;28;19916;-80
2022/12/14 01:23:30;;;;;;;;;;;;;;;-4.42;100.00;100664.09;5073095;28;19916;-81
2022/12/14 01:25:57;;;;;;;;;;;;;;;-4.40;100.00;100668.31;5041808;28;19921;-80
2022/12/14 01:28:23;;;;;;;;;;;;;;;-4.33;100.00;100663.75;5058755;28;19916;-80
2022/12/14 01:30:48;;;;;;;;;;;;;;;-4.35;100.00;100670.72;5059928;28;19924;-79
2022/12/14 01:33:13;;;;;;;;;;;;;;;-4.41;100.00;100660.63;5056622;28;20559;-80
2022/12/14 01:35:38;;;;;;;;;;;;;;;-4.42;100.00;100653.78;5057786;28;20400;-80
2022/12/14 01:38:03;;;;;;;;;;;;;;;-4.41;100.00;100655.47;5058336;28;19984;-80
2022/12/14 01:40:29;;;;;;;;;;;;;;;-4.44;100.00;100650.44;5057822;28;19916;-80
2022/12/14 01:42:55;;;;;;;;;;;;;;;-4.43;100.00;100652.13;5056907;28;19920;-80
2022/12/14 01:45:20;;;;;;;;;;;;;;;-4.43;100.00;100645.22;5057453;28;19924;-80
2022/12/14 01:47:49;;;;;;;;;;;;;;;-4.44;100.00;100660.72;5058305;28;19916;-80
2022/12/14 01:50:32;;;;;;;;;;;;;;;-4.42;100.00;100656.38;5058534;28;20380;-80
2022/12/14 01:53:04;;;;;;;;;;;;;;;-4.51;100.00;100654.16;5059466;28;19909;-80
2022/12/14 01:55:38;;;;;;;;;;;;;;;-4.62;100.00;100645.09;5057329;28;19916;-80
2022/12/14 01:58:06;;;;;;;;;;;;;;;-4.69;100.00;100646.22;5058352;28;19921;-80
2022/12/14 02:00:31;;;;;;;;;;;;;;;-4.72;100.00;100636.06;5057951;28;19917;-79
2022/12/14 02:03:05;;;;;;;;;;;;;;;-4.67;100.00;100635.88;5057310;28;20013;-80
2022/12/14 02:05:32;;;;;;;;;;;;;;;-4.66;100.00;100628.09;5058607;28;19912;-79
2022/12/14 02:07:58;;;;;;;;;;;;;;;-4.66;100.00;100630.69;5056122;28;19912;-80
2022/12/14 02:10:25;;;;;;;;;;;;;;;-4.70;100.00;100626.53;5058223;28;20427;-80
2022/12/14 02:12:53;;;;;;;;;;;;;;;-4.78;100.00;100618.25;5056786;28;20018;-80
2022/12/14 02:15:18;;;;;;;;;;;;;;;-4.85;100.00;100617.66;5057461;28;20128;-79
2022/12/14 02:17:45;;;;;;;;;;;;;;;-4.85;100.00;100615.06;5056852;28;20399;-79
2022/12/14 02:20:12;;;;;;;;;;;;;;;-4.84;100.00;100615.91;5063977;28;20367;-80
2022/12/14 02:22:52;;;;;;;;;;;;;;;-4.84;100.00;100615.91;5058240;28;19916;-80
2022/12/14 02:25:23;;;;;;;;;;;;;;;-4.80;100.00;100620.03;5057742;28;19927;-79
2022/12/14 02:27:58;;;;;;;;;;;;;;;-4.81;100.00;100620.97;5057097;28;19947;-80
2022/12/14 02:30:24;;;;;;;;;;;;;;;-4.83;100.00;100612.44;5057487;28;19913;-81
2022/12/14 02:32:59;;;;;;;;;;;;;;;-4.87;100.00;100606.56;5055184;28;19913;-80
2022/12/14 02:35:43;;;;;;;;;;;;;;;-4.98;100.00;100604.38;5056261;28;19912;-80
2022/12/14 02:38:08;;;;;;;;;;;;;;;-5.07;100.00;100603.91;5055761;28;19931;-80
2022/12/14 02:40:49;;;;;;;;;;;;;;;-5.08;100.00;100594.50;5056718;28;19912;-79
2022/12/14 02:43:23;;;;;;;;;;;;;;;-5.08;100.00;100591.91;5058463;28;19917;-81
2022/12/14 02:45:54;;;;;;;;;;;;;;;-5.07;100.00;100597.03;5056358;28;19931;-79
2022/12/14 02:48:25;;;;;;;;;;;;;;;-5.05;100.00;100597.81;5056288;28;20433;-80
2022/12/14 02:50:50;;;;;;;;;;;;;;;-5.02;100.00;100592.53;5056300;28;19920;-80
2022/12/14 02:53:16;;;;;;;;;;;;;;;-4.97;100.00;100598.34;5064636;28;19920;-81
2022/12/14 02:55:47;;;;;;;;;;;;;;;-4.94;100.00;100588.81;5056767;28;19917;-80
2022/12/14 02:58:16;;;;;;;;;;;;;;;-5.02;100.00;100592.53;5061566;28;20049;-78
2022/12/14 03:00:41;;;;;;;;;;;;;;;-5.09;100.00;100585.94;5056897;28;19948;-79
2022/12/14 03:03:07;;;;;;;;;;;;;;;-5.14;100.00;100581.84;5040888;28;19970;-80
2022/12/14 03:05:32;;;;;;;;;;;;;;;-5.10;100.00;100591.13;5056835;28;19970;-80
2022/12/14 03:07:59;;;;;;;;;;;;;;;-5.09;100.00;100595.41;5057230;28;19920;-79
2022/12/14 03:10:31;;;;;;;;;;;;;;;-5.07;100.00;100586.72;5055872;28;20036;-81
2022/12/14 03:13:09;;;;;;;;;;;;;;;-5.05;100.00;100587.50;5056864;28;19919;-80
2022/12/14 03:15:36;;;;;;;;;;;;;;;-5.06;100.00;100580.66;5056363;28;20346;-80
2022/12/14 03:18:04;;;;;;;;;;;;;;;-5.10;100.00;100578.28;5056522;28;19923;-80
2022/12/14 03:20:31;;;;;;;;;;;;;;;-5.14;100.00;100567.25;5056957;28;19920;-78
2022/12/14 03:22:59;;;;;;;;;;;;;;;-5.17;100.00;100567.38;5057604;28;19919;-80
2022/12/14 03:25:27;;;;;;;;;;;;;;;-5.16;100.00;100569.06;5056250;28;19912;-80
2022/12/14 03:27:59;;;;;;;;;;;;;;;-5.13;100.00;100570.69;5056825;28;19950;-81
2022/12/14 03:30:24;;;;;;;;;;;;;;;-5.14;100.00;100567.25;5060178;28;20273;-81
2022/12/14 03:32:52;;;;;;;;;;;;;;;-5.15;100.00;100568.16;5041757;28;19927;-80
2022/12/14 03:35:22;;;;;;;;;;;;;;;-5.16;100.00;100569.06;5055762;28;19916;-80
2022/12/14 03:37:50;;;;;;;;;;;;;;;-5.17;100.00;100563.06;5056471;28;19924;-81
2022/12/14 03:40:16;;;;;;;;;;;;;;;-5.17;100.00;100562.22;5072369;28;20664;-80
2022/12/14 03:43:00;;;;;;;;;;;;;;;-5.21;100.00;100552.94;5043819;28;20117;-79
2022/12/14 03:45:29;;;;;;;;;;;;;;;-5.15;100.00;100557.84;5062218;28;19999;-81
2022/12/14 03:48:03;;;;;;;;;;;;;;;-5.14;100.00;100559.53;5056095;28;19912;-81
2022/12/14 03:50:35;;;;;;;;;;;;;;;-5.15;100.00;100554.44;5055349;28;19979;-81
2022/12/14 03:53:00;;;;;;;;;;;;;;;-5.14;100.00;100556.94;5058477;28;19916;-81
2022/12/14 03:55:37;;;;;;;;;;;;;;;-5.14;100.00;100556.94;5055187;28;19916;-79
2022/12/14 03:58:21;;;;;;;;;;;;;;;-5.13;100.00;100553.50;5055865;28;19920;-79
2022/12/14 04:00:58;;;;;;;;;;;;;;;-5.13;100.00;100550.91;5055902;28;19995;-79
2022/12/14 04:03:34;;;;;;;;;;;;;;;-5.12;100.00;100544.88;5056496;28;19916;-81
2022/12/14 04:06:05;;;;;;;;;;;;;;;-5.11;100.00;100541.41;5058322;28;19931;-81
2022/12/14 04:08:42;;;;;;;;;;;;;;;-5.12;100.00;100542.28;5060489;28;19916;-80
2022/12/14 04:19:48;;;;;;;;;;;;;;;-5.29;100.00;100522.38;5059178;28;19927;-82
2022/12/14 04:22:20;;;;;;;;;;;;;;;-5.30;100.00;100519.84;5060895;28;19954;-82
2022/12/14 04:27:42;;;;;;;;;;;;;;;-5.28;100.00;100520.63;5059641;28;19982;-82
2022/12/14 04:30:08;;;;;;;;;;;;;;;-5.27;100.00;100514.56;5059835;28;20279;-82
2022/12/14 04:32:48;;;;;;;;;;;;;;;-5.33;100.00;100520.78;5057997;28;19916;-81
2022/12/14 04:35:18;;;;;;;;;;;;;;;-5.39;100.00;100511.56;5064810;28;19916;-81
2022/12/14 04:38:00;;;;;;;;;;;;;;;-5.32;100.00;100512.16;5059893;28;19939;-80
2022/12/14 04:40:33;;;;;;;;;;;;;;;-5.31;100.00;100506.16;5066312;28;19987;-79
2022/12/14 04:43:02;;;;;;;;;;;;;;;-5.28;100.00;100510.34;5058955;28;20280;-80
2022/12/14 04:45:30;;;;;;;;;;;;;;;-5.25;100.00;100507.63;5058891;28;19924;-81
2022/12/14 04:48:06;;;;;;;;;;;;;;;-5.26;100.00;100505.97;5065203;28;19917;-80
2022/12/14 04:50:38;;;;;;;;;;;;;;;-5.29;100.00;100504.34;5059939;28;19909;-81
2022/12/14 04:53:12;;;;;;;;;;;;;;;-5.30;100.00;100505.25;5060537;28;19962;-81
2022/12/14 04:55:48;;;;;;;;;;;;;;;-5.34;100.00;100503.66;5059079;28;20302;-81
2022/12/14 04:58:23;;;;;;;;;;;;;;;-5.40;100.00;100496.19;5059558;28;19917;-81
2022/12/14 05:01:06;;;;;;;;;;;;;;;-5.34;100.00;100502.84;5059478;28;19912;-80
2022/12/14 05:03:33;;;;;;;;;;;;;;;-5.37;100.00;100499.47;5056658;28;19920;-81
2022/12/14 05:06:05;;;;;;;;;;;;;;;-5.36;100.00;100497.75;5058976;28;19965;-79
2022/12/14 05:08:45;;;;;;;;;;;;;;;-5.38;100.00;100492.69;5058211;28;19915;-81
2022/12/14 05:11:24;;;;;;;;;;;;;;;-5.37;100.00;100484.06;5059457;28;19916;-80
2022/12/14 05:13:49;;;;;;;;;;;;;;;-5.41;100.00;100479.91;5057592;28;20356;-80
2022/12/14 05:16:16;;;;;;;;;;;;;;;-5.42;100.00;100475.69;5057836;28;19920;-79
2022/12/14 05:18:42;;;;;;;;;;;;;;;-5.50;100.00;100471.72;5057643;28;19986;-79
2022/12/14 05:21:08;;;;;;;;;;;;;;;-5.58;100.00;100472.00;5057366;28;19935;-80
2022/12/14 05:23:33;;;;;;;;;;;;;;;-5.67;100.00;100474.91;5057986;28;20299;-79
2022/12/14 05:25:58;;;;;;;;;;;;;;;-5.63;100.00;100473.91;5057532;28;19928;-80
2022/12/14 05:28:23;;;;;;;;;;;;;;;-5.60;100.00;100471.22;5057809;28;19913;-80
2022/12/14 05:30:49;;;;;;;;;;;;;;;-5.62;100.00;100466.16;5055963;28;19950;-80
2022/12/14 05:33:18;;;;;;;;;;;;;;;-5.68;100.00;100468.06;5061005;28;19973;-81
2022/12/14 05:35:44;;;;;;;;;;;;;;;-5.69;100.00;100466.41;5063152;28;19924;-80
2022/12/14 05:38:09;;;;;;;;;;;;;;;-5.74;100.00;100461.44;5058889;28;19920;-80
2022/12/14 05:40:35;;;;;;;;;;;;;;;-5.79;100.00;100461.59;5042644;28;20409;-81
2022/12/14 05:43:07;;;;;;;;;;;;;;;-5.81;100.00;100454.84;5057904;28;19916;-81
2022/12/14 05:45:32;;;;;;;;;;;;;;;-5.84;100.00;100462.66;5056897;28;19924;-80
2022/12/14 05:47:57;;;;;;;;;;;;;;;-5.86;100.00;100459.31;5058004;28;19920;-82
2022/12/14 05:50:23;;;;;;;;;;;;;;;-5.83;100.00;100454.06;5053222;28;19999;-82
2022/12/14 05:52:50;;;;;;;;;;;;;;;-5.84;100.00;100455.78;5057169;28;19982;-82
2022/12/14 05:55:15;;;;;;;;;;;;;;;-5.85;100.00;100450.72;5056316;28;20003;-82
2022/12/14 05:57:40;;;;;;;;;;;;;;;-5.87;100.00;100448.19;5055412;28;20007;-81
2022/12/14 06:00:06;;;;;;;;;;;;;;;-5.87;100.00;100444.78;5055276;28;20591;-82
2022/12/14 06:02:31;;;;;;;;;;;;;;;-5.83;100.00;100446.34;5055436;28;20003;-81
2022/12/14 06:04:56;;;;;;;;;;;;;;;-5.89;100.00;100444.84;5052463;28;20379;-81
2022/12/14 06:07:21;;;;;;;;;;;;;;;-5.96;100.00;100446.00;5054869;28;21094;-82
2022/12/14 06:09:47;;;;;;;;;;;;;;;-5.98;100.00;100445.19;5055693;28;19920;-80
2022/12/14 06:12:12;;;;;;;;;;;;;;;-6.01;100.00;100443.59;5039824;28;20081;-81
2022/12/14 06:14:37;;;;;;;;;;;;;;;-5.97;100.00;100448.59;5053589;28;19931;-82
2022/12/14 06:17:03;;;;;;;;;;;;;;;-5.97;100.00;100443.47;5053668;28;19921;-82
2022/12/14 06:19:28;;;;;;;;;;;;;;;-5.96;100.00;100448.56;5055227;28;19921;-82
2022/12/14 06:21:54;;;;;;;;;;;;;;;-5.96;100.00;100450.31;5053575;28;19923;-83
2022/12/14 06:24:19;;;;;;;;;;;;;;;-5.98;100.00;100454.66;5054842;28;19925;-81
2022/12/14 06:26:45;;;;;;;;;;;;;;;-5.99;100.00;100453.78;5053272;28;19920;-82
2022/12/14 06:29:15;;;;;;;;;;;;;;;-6.06;100.00;100442.06;5037560;28;19931;-81
2022/12/14 06:31:40;;;;;;;;;;;;;;;-6.12;100.00;100442.28;5052022;28;19916;-81
2022/12/14 06:34:05;;;;;;;;;;;;;;;-6.23;100.00;100445.22;5054068;28;19920;-82
2022/12/14 06:36:34;;;;;;;;;;;;;;;-6.28;100.00;100442.81;5037318;28;19952;-82
2022/12/14 06:39:01;;;;;;;;;;;;;;;-6.29;100.00;100438.56;5071258;28;19978;-81
2022/12/14 06:41:27;;;;;;;;;;;;;;;-6.27;100.00;100436.78;5055526;28;19913;-78
2022/12/14 06:43:52;;;;;;;;;;;;;;;-6.28;100.00;100436.84;5038489;28;19920;-79
2022/12/14 06:46:19;;;;;;;;;;;;;;;-6.26;100.00;100435.88;5055547;28;20607;-80
2022/12/14 06:48:52;;;;;;;;;;;;;;;-6.26;100.00;100441.03;5053177;28;19912;-82
2022/12/14 06:51:17;;;;;;;;;;;;;;;-6.19;100.00;100440.81;5051849;28;19916;-81
2022/12/14 06:53:43;;;;;;;;;;;;;;;-6.22;100.00;100439.19;5052165;28;20644;-82
2022/12/14 06:56:09;;;;;;;;;;;;;;;-6.25;100.00;100445.28;5052141;28;19966;-80
2022/12/14 06:58:35;;;;;;;;;;;;;;;-6.31;100.00;100437.78;5050438;28;19921;-82
2022/12/14 07:01:01;;;;;;;;;;;;;;;-6.33;100.00;100429.28;5055213;28;20422;-84
2022/12/14 07:03:26;;;;;;;;;;;;;;;-6.31;100.00;100432.66;5046958;28;20395;-84
2022/12/14 07:05:54;;;;;;;;;;;;;;;-6.28;100.00;100431.72;5037938;28;19920;-82
2022/12/14 07:08:20;;;;;;;;;;;;;;;-6.27;100.00;100431.66;5070861;28;19913;-82
2022/12/14 07:10:45;;;;;;;;;;;;;;;-6.25;100.00;100431.59;5056965;28;19934;-82
2022/12/14 07:13:10;;;;;;;;;;;;;;;-6.27;100.00;100423.09;5057332;28;19927;-81
2022/12/14 07:15:35;;;;;;;;;;;;;;;-6.29;100.00;100425.75;5056548;28;19970;-81
2022/12/14 07:18:01;;;;;;;;;;;;;;;-6.32;100.00;100423.25;5056544;28;19924;-82
2022/12/14 07:20:26;;;;;;;;;;;;;;;-6.29;100.00;100425.75;5058003;28;19916;-81
2022/12/14 07:22:51;;;;;;;;;;;;;;;-6.29;100.00;100415.47;5041095;28;19970;-81
2022/12/14 07:25:16;;;;;;;;;;;;;;;-6.29;100.00;100415.47;5055795;28;19912;-81
2022/12/14 07:27:42;;;;;;;;;;;;;;;-6.28;100.00;100422.25;5055862;28;20176;-81
2022/12/14 07:30:07;;;;;;;;;;;;;;;-6.21;100.00;100417.75;5039237;28;19916;-79
2022/12/14 07:32:32;;;;;;;;;;;;;;;-6.18;100.00;100424.50;5057951;28;19924;-81
2022/12/14 07:34:58;;;;;;;;;;;;;;;-6.15;100.00;100425.25;5040238;28;20469;-79
2022/12/14 07:37:23;;;;;;;;;;;;;;;-6.08;100.00;100424.13;5056039;28;19919;-81
2022/12/14 07:39:48;;;;;;;;;;;;;;;-6.08;100.00;100428.44;5057221;28;19927;-79
2022/12/14 07:42:13;;;;;;;;;;;;;;;-6.05;100.00;100421.47;5059545;28;19923;-79
2022/12/14 07:44:39;;;;;;;;;;;;;;;-6.08;100.00;100423.28;5060834;28;20291;-78
2022/12/14 07:47:04;;;;;;;;;;;;;;;-6.16;100.00;100415.88;5061937;28;19924;-79
2022/12/14 07:49:29;;;;;;;;;;;;;;;-6.20;100.00;100411.72;5060932;28;20364;-79
2022/12/14 07:51:54;;;;;;;;;;;;;;;-6.22;100.00;100414.34;5050783;28;19916;-81
2022/12/14 07:54:20;;;;;;;;;;;;;;;-6.17;100.00;100410.78;5068375;28;20003;-80
2022/12/14 07:56:45;;;;;;;;;;;;;;;-6.10;100.00;100414.81;5045019;28;19920;-79
2022/12/14 07:59:13;;;;;;;;;;;;;;;-6.06;100.00;100418.94;5039010;28;19925;-79
2022/12/14 08:01:39;;;;;;;;;;;;;;;-6.02;100.00;100412.81;5060949;28;19970;-80
2022/12/14 08:04:04;;;;;;;;;;;;;;;-6.02;100.00;100417.94;5060884;28;19912;-79
2022/12/14 08:06:30;;;;;;;;;;;;;;;-6.02;100.00;100423.06;5060729;28;19915;-80
2022/12/14 08:08:56;;;;;;;;;;;;;;;-6.05;100.00;100412.94;5060456;28;19916;-79
2022/12/14 08:11:22;;;;;;;;;;;;;;;-6.08;100.00;100405.31;5067191;28;19912;-79
2022/12/14 08:13:55;;;;;;;;;;;;;;;-6.02;100.00;100405.09;5061296;28;19916;-79
2022/12/14 08:16:20;;;;;;;;;;;;;;;-5.97;100.00;100400.63;5060700;28;20478;-76
2022/12/14 08:18:45;;;;;;;;;;;;;;;-6.00;100.00;100401.56;5059129;28;19967;-77
2022/12/14 08:21:11;;;;;;;;;;;;;;;-5.89;100.00;100408.03;5043612;28;20425;-80
2022/12/14 08:23:37;;;;;;;;;;;;;;;-5.81;100.00;100406.03;5059557;28;19998;-76
2022/12/14 08:26:04;;;;;;;;;;;;;;;-5.72;100.00;100412.56;5058861;28;20363;-79
2022/12/14 08:28:30;;;;;;;;;;;;;;;-5.67;100.00;100410.63;5067324;28;19939;-83
2022/12/14 08:30:55;;;;;;;;;;;;;;;-5.35;100.00;100411.16;5057691;28;19916;-81
2022/12/14 08:33:21;;;;;;;;;;;;;;;-5.11;100.00;100407.59;5060775;28;19915;-77
2022/12/14 08:35:46;;;;;;;;;;;;;;;-4.93;100.00;100403.44;5059653;28;19912;-76
2022/12/14 08:38:11;;;;;;;;;;;;;;;-4.73;100.00;100402.63;5060069;28;19927;-81
2022/12/14 08:40:37;;;;;;;;;;;;;;;-4.51;100.00;100414.63;5059117;28;19916;-79
2022/12/14 08:43:03;;;;;;;;;;;;;;;-4.08;100.00;100415.34;5059488;28;20265;-79
2022/12/14 08:45:28;;;;;;;;;;;;;;;-3.78;100.00;100416.56;5059355;28;19982;-79
2022/12/14 08:47:57;;;;;;;;;;;;;;;-3.64;100.00;100415.09;5043661;28;20009;-78
2022/12/14 08:50:23;;;;;;;;;;;;;;;-3.83;100.00;100415.94;5056487;28;19916;-76
2022/12/14 08:52:48;;;;;;;;;;;;;;;-3.66;100.00;100411.75;5055140;28;19966;-75
2022/12/14 08:55:14;;;;;;;;;;;;;;;-3.55;100.00;100404.34;5056676;28;20379;-75
2022/12/14 08:57:39;;;;;;;;;;;;;;;-3.76;100.00;100407.00;5041009;28;19935;-78
2022/12/14 09:00:05;;;;;;;;;;;;;;;-3.80;100.00;100402.91;5040340;28;19920;-77
2022/12/14 09:02:30;;;;;;;;;;;;;;;-3.66;100.00;100404.84;5057226;28;19920;-80
2022/12/14 09:04:56;;;;;;;;;;;;;;;-3.03;100.00;100399.31;5055685;28;19916;-80
2022/12/14 09:07:21;;;;;;;;;;;;;;;-2.52;100.00;100402.81;5055991;28;19927;-77
2022/12/14 09:09:46;;;;;;;;;;;;;;;-1.47;100.00;100407.69;5056172;28;20359;-77
2022/12/14 09:12:11;;;;;;;;;;;;;;;-1.18;100.00;100397.47;5047389;28;20010;-80
2022/12/14 09:14:37;;;;;;;;;;;;;;;-1.55;100.00;100395.16;5038964;28;19921;-78
2022/12/14 09:17:02;;;;;;;;;;;;;;;-1.46;100.00;100386.06;5051319;28;20034;-79
2022/12/14 09:19:28;;;;;;;;;;;;;;;-1.51;100.00;100401.00;5056220;28;19932;-79
2022/12/14 09:21:53;;;;;;;;;;;;;;;-1.49;100.00;100388.81;5055394;28;19917;-79
2022/12/14 09:24:19;;;;;;;;;;;;;;;-1.29;100.00;100390.31;5072230;28;19916;-79
2022/12/14 09:26:44;;;;;;;;;;;;;;;-0.22;100.00;100388.44;5035524;28;20017;-79
2022/12/14 09:29:13;;;;;;;;;;;;;;;1.19;100.00;100396.94;5045744;28;19920;-79
2022/12/14 09:31:38;;;;;;;;;;;;;;;3.13;100.00;100392.09;5059098;28;20292;-79
2022/12/14 09:34:04;;;;;;;;;;;;;;;4.46;100.00;100394.13;5040876;28;19927;-79
2022/12/14 09:36:29;;;;;;;;;;;;;;;4.97;84.55;100392.69;5056225;28;20347;-79
2022/12/14 09:38:56;;;;;;;;;;;;;;;4.60;79.98;100392.22;5055722;28;19921;-80
2022/12/14 09:41:35;;;;;;;;;;;;;;;6.08;82.73;100397.41;5057038;28;19998;-80
2022/12/14 09:44:19;;;;;;;;;;;;;;;7.21;63.35;100391.78;5060084;28;19917;-80
2022/12/14 09:46:57;;;;;;;;;;;;;;;7.35;59.18;100395.75;5057068;28;19920;-80
2022/12/14 09:49:25;;;;;;;;;;;;;;;8.71;58.39;100401.50;5054639;28;19923;-80
2022/12/14 09:51:51;;;;;;;;;;;;;;;9.20;54.82;100388.78;5060363;28;19916;-81
2022/12/14 09:54:20;;;;;;;;;;;;;;;9.75;48.90;100387.69;5039044;28;20454;-82
2022/12/14 09:56:45;;;;;;;;;;;;;;;10.82;50.73;100386.28;5056065;28;19913;-82
2022/12/14 09:59:14;;;;;;;;;;;;;;;12.14;45.81;100391.28;5053682;28;19931;-82
2022/12/14 10:01:39;;;;;;;;;;;;;;;11.96;42.07;100388.06;5054962;28;19921;-83
2022/12/14 10:04:04;;;;;;;;;;;;;;;12.35;42.21;100390.72;5056195;28;19916;-81
2022/12/14 10:06:35;;;;;;;;;;;;;;;12.08;41.52;100388.50;5056150;28;19916;-81
2022/12/14 10:09:01;;;;;;;;;;;;;;;12.18;42.94;100381.22;5054353;28;19916;-82
2022/12/14 10:11:30;;;;;;;;;;;;;;;12.67;42.67;100380.97;5055331;28;19913;-80
2022/12/14 10:13:55;;;;;;;;;;;;;;;13.60;40.72;100383.56;5055920;28;19962;-80
2022/12/14 10:16:31;;;;;;;;;;;;;;;13.46;38.62;100388.66;5061634;28;19921;-83
2022/12/14 10:19:15;;;;;;;;;;;;;;;13.07;41.12;100379.03;5053191;28;19916;-80
2022/12/14 10:21:43;;;;;;;;;;;;;;;14.03;38.54;100381.13;5055011;28;19963;-81
2022/12/14 10:24:14;;;;;;;;;;;;;;;15.01;38.07;100385.09;5053483;28;19912;-81
2022/12/14 10:26:41;;;;;;;;;;;;;;;15.72;37.85;100381.59;5052394;28;19921;-81
2022/12/14 10:29:25;;;;;;;;;;;;;;;16.27;37.37;100376.38;5054074;28;19923;-81
2022/12/14 10:32:16;;;;;;;;;;;;;;;16.88;34.83;100387.00;5053896;28;19916;-81
2022/12/14 10:34:42;;;;;;;;;;;;;;;17.32;34.04;100374.13;5051234;28;19960;-82
2022/12/14 10:37:31;;;;;;;;;;;;;;;16.74;32.20;100385.31;5054622;28;20414;-82
2022/12/14 10:40:12;;;;;;;;;;;;;;;15.39;32.78;100368.84;5053597;28;19943;-82
2022/12/14 10:42:38;;;;;;;;;;;;;;;13.38;33.79;100360.38;5054977;28;20698;-81
2022/12/14 10:45:22;;;;;;;;;;;;;;;12.26;37.17;100361.81;5054071;28;19929;-81
2022/12/14 10:47:50;;;;;;;;;;;;;;;10.30;38.57;100363.59;5055591;28;19929;-81
2022/12/14 10:50:24;;;;;;;;;;;;;;;9.15;41.88;100356.84;5054357;28;19916;-82
2022/12/14 10:52:51;;;;;;;;;;;;;;;8.51;42.84;100356.91;5053204;28;19923;-82
2022/12/14 10:55:19;;;;;;;;;;;;;;;8.12;45.82;100351.84;5053941;28;19963;-82
2022/12/14 10:57:45;;;;;;;;;;;;;;;8.09;46.10;100354.75;5054236;28;20376;-81
2022/12/14 11:00:11;;;;;;;;;;;;;;;7.63;48.65;100348.59;5054605;28;19916;-82
2022/12/14 11:02:41;;;;;;;;;;;;;;;8.74;51.40;100354.66;5054911;28;19924;-81
2022/12/14 11:05:25;;;;;;;;;;;;;;;10.57;46.83;100357.22;5055309;28;19964;-82
2022/12/14 11:07:51;;;;;;;;;;;;;;;11.08;41.58;100359.75;5051940;28;19943;-82
2022/12/14 11:10:18;;;;;;;;;;;;;;;10.26;43.46;100354.31;5045412;28;19917;-83
2022/12/14 11:12:52;;;;;;;;;;;;;;;9.26;43.58;100357.41;5057037;28;19916;-83
2022/12/14 11:15:41;;;;;;;;;;;;;;;7.75;46.71;100355.34;5056993;28;19951;-84
2022/12/14 11:18:15;;;;;;;;;;;;;;;6.04;49.86;100351.47;5051221;28;19912;-81
2022/12/14 11:20:49;;;;;;;;;;;;;;;4.81;56.63;100339.97;5060564;28;19951;-81
2022/12/14 11:23:29;;;;;;;;;;;;;;;3.93;65.08;100336.50;5066522;28;20383;-81
2022/12/14 11:25:56;;;;;;;;;;;;;;;2.61;78.10;100338.56;5059311;28;20271;-81
2022/12/14 11:28:22;;;;;;;;;;;;;;;2.26;84.58;100332.38;5077227;28;20004;-81
2022/12/14 11:31:02;;;;;;;;;;;;;;;1.41;90.13;100326.97;5059784;28;20007;-83
2022/12/14 11:33:31;;;;;;;;;;;;;;;0.93;97.75;100318.91;5058325;28;20785;-81
2022/12/14 11:35:57;;;;;;;;;;;;;;;0.47;100.00;100318.47;5057834;28;20386;-81
2022/12/14 11:38:24;;;;;;;;;;;;;;;0.35;100.00;100315.75;5058657;28;19916;-81
2022/12/14 11:40:50;;;;;;;;;;;;;;;-0.05;100.00;100313.03;5071337;28;19916;-82
2022/12/14 11:43:23;;;;;;;;;;;;;;;-0.63;100.00;100316.59;5041724;28;19920;-82
2022/12/14 11:45:53;;;;;;;;;;;;;;;-0.76;100.00;100320.81;5055690;28;19919;-81
2022/12/14 11:48:20;;;;;;;;;;;;;;;-0.77;100.00;100313.97;5061615;28;20000;-80
2022/12/14 11:50:46;;;;;;;;;;;;;;;-0.24;100.00;100328.06;5059641;28;19923;-81
2022/12/14 11:53:13;;;;;;;;;;;;;;;-0.02;100.00;100327.59;5066312;28;19920;-81
2022/12/14 11:55:42;;;;;;;;;;;;;;;-0.46;100.00;100324.19;5060711;28;20292;-82
2022/12/14 11:58:23;;;;;;;;;;;;;;;-0.59;100.00;100320.66;5060908;28;19913;-80
2022/12/14 12:00:49;;;;;;;;;;;;;;;-0.31;100.00;100319.00;5061191;28;19944;-81
2022/12/14 12:03:22;;;;;;;;;;;;;;;-0.34;100.00;100319.19;5060311;28;19919;-80
2022/12/14 12:05:48;;;;;;;;;;;;;;;-0.62;100.00;100324.25;5075911;28;19912;-81
2022/12/14 12:08:22;;;;;;;;;;;;;;;-0.66;100.00;100321.94;5059144;28;20005;-81
2022/12/14 12:10:49;;;;;;;;;;;;;;;-0.86;100.00;100321.34;5055588;28;19923;-80
2022/12/14 12:13:22;;;;;;;;;;;;;;;-0.46;100.00;100321.59;5056356;28;19970;-80
2022/12/14 12:15:55;;;;;;;;;;;;;;;-0.16;100.00;100318.06;5059089;28;20566;-80
2022/12/14 12:18:20;;;;;;;;;;;;;;;-0.27;100.00;100313.53;5057078;28;19922;-80
2022/12/14 12:20:52;;;;;;;;;;;;;;;-0.14;100.00;100318.78;5058832;28;20024;-79
2022/12/14 12:23:21;;;;;;;;;;;;;;;-0.03;100.00;100323.31;5058736;28;19913;-80
2022/12/14 12:25:48;;;;;;;;;;;;;;;-0.19;100.00;100310.47;5056296;28;19917;-82
2022/12/14 12:28:24;;;;;;;;;;;;;;;-0.29;100.00;100309.34;5057505;28;19916;-81
2022/12/14 12:30:51;;;;;;;;;;;;;;;-0.72;100.00;100302.44;5057908;28;20312;-81
2022/12/14 12:33:22;;;;;;;;;;;;;;;-1.07;100.00;100300.16;5057455;28;19923;-80
2022/12/14 12:35:50;;;;;;;;;;;;;;;-0.97;100.00;100302.19;5058822;28;19912;-81
2022/12/14 12:38:20;;;;;;;;;;;;;;;-0.87;100.00;100304.16;5059000;28;19916;-80
2022/12/14 12:40:59;;;;;;;;;;;;;;;-0.66;100.00;100303.81;5064920;28;19975;-79
2022/12/14 12:43:30;;;;;;;;;;;;;;;-0.67;100.00;100305.56;5058347;28;19920;-79
2022/12/14 12:46:01;;;;;;;;;;;;;;;-1.10;100.00;100292.53;5057258;28;19947;-80